Latest Coastal Weather Observations for Holmes Reef

IDQ60701

Issued at 2:32 pm EST Sunday 26 June 2016 (issued every 10 minutes, with the page automatically refreshed every 10 minutes)

About coastal observations | Map of coastal stations | Coastal observations for QLD | Marine services | Other Formats
Station Details ID: 200732 Name: HOLMES REEF Lat: -16.47 Lon: 147.87 Height: 1.9 m
Data from the previous 72 hours. | See also: Recent months at Holmes Reef
Date/Time
EST
Temp
°C
Wind Pressure Rain since
9am
mm
Weather Cloud Vis
km
Sea
Height
m
Swell
Dir  Spd
kts
Gust
kts
hPa Trend Height
m
Period
s
Dir
26/02:30pm 26.0 E 13 16 1012.8 - - - - - - - - -
26/02:15pm 26.1 E 14 15 1012.5 - - - - - - - - -
26/02:00pm 26.1 E 13 17 1012.9 - - - - - - - - -
26/01:30pm 26.1 E 14 16 1013.3 - - - - - - - - -
26/01:15pm 26.0 E 14 - 1013.1 - - - - - - - - -
26/01:00pm 25.9 E 13 15 1013.6 - - - - - - - - -
26/12:30pm 26.1 E 12 14 1013.9 - - - - - - - - -
26/12:15pm 26.2 E 12 - 1013.9 - - - - - - - - -
26/12:00pm 25.5 E 13 16 1014.5 - - - - - - - - -
26/11:30am 25.2 E 15 17 1014.9 - - - - - - - - -
26/11:15am 24.9 ENE 11 - 1014.8 - - - - - - - - -
26/11:00am 24.4 ESE 13 17 1015.4 - - - - - - - - -
26/10:30am 26.2 E 12 13 1015.5 - - - - - - - - -
26/10:15am 25.8 ESE 13 - 1015.3 - - - - - - - - -
26/10:00am 26.2 E 12 14 1015.6 - - - - - - - - -
26/09:30am 26.4 E 14 16 1015.7 - - - - - - - - -
26/09:15am 26.4 E 15 - 1015.4 - - - - - - - - -
26/09:00am 26.1 E 15 18 1015.6 - - - - - - - - -
26/08:30am 26.2 ESE 14 16 1015.3 - - - - - - - - -
26/08:15am 26.1 ESE 14 - 1015.0 - - - - - - - - -
26/08:00am 26.2 E 14 16 1015.2 - - - - - - - - -
26/07:30am 26.0 E 14 17 1014.9 - - - - - - - - -
26/07:15am 26.1 E 15 - 1014.4 - - - - - - - - -
26/07:00am 25.9 E 16 17 1014.6 - - - - - - - - -
26/06:30am 25.9 E 15 17 1014.4 - - - - - - - - -
26/06:15am 25.9 E 15 - 1013.9 - - - - - - - - -
26/06:00am 25.8 E 16 17 1014.1 - - - - - - - - -
26/05:30am 25.8 E 16 18 1013.9 - - - - - - - - -
26/05:15am 25.8 E 16 - 1013.5 - - - - - - - - -
26/05:00am 25.7 E 16 18 1013.7 - - - - - - - - -
26/04:30am 25.8 E 16 19 1013.5 - - - - - - - - -
26/04:15am 25.8 E 17 - 1013.1 - - - - - - - - -
26/04:00am 25.7 E 18 20 1013.4 - - - - - - - - -
26/03:30am 25.7 E 16 19 1013.5 - - - - - - - - -
26/03:15am 25.8 E 17 - 1013.1 - - - - - - - - -
26/03:00am 25.8 ESE 17 19 1013.4 - - - - - - - - -
26/02:30am 25.9 E 17 20 1013.5 - - - - - - - - -
26/02:15am 25.8 E 17 - 1013.3 - - - - - - - - -
26/02:00am 25.9 E 18 21 1013.5 - - - - - - - - -
26/01:30am 25.9 E 18 21 1013.9 - - - - - - - - -
26/01:15am 26.1 E 18 - 1013.8 - - - - - - - - -
26/01:00am 25.9 E 19 21 1014.2 - - - - - - - - -
26/12:30am 26.0 E 19 21 1014.4 - - - - - - - - -
26/12:15am 26.0 E 19 - 1014.3 - - - - - - - - -
26/12:00am 26.0 E 19 21 1014.7 - - - - - - - - -
 
Date/Time
EST
Temp
°C
Wind Pressure Rain since
9am
mm
Weather Cloud Vis
km
Sea
Height
m
Swell
Dir  Spd
kts
Gust
kts
hPa Trend Height
m
Period
s
Dir
25/11:30pm 25.9 E 20 22 1014.8 - - - - - - - - -
25/11:15pm 26.0 E 19 - 1014.7 - - - - - - - - -
25/11:00pm 26.1 E 20 23 1015.0 - - - - - - - - -
25/10:30pm 26.0 E 19 22 1015.3 - - - - - - - - -
25/10:15pm 26.1 E 20 - 1015.1 - - - - - - - - -
25/10:00pm 26.1 E 19 22 1015.3 - - - - - - - - -
25/09:30pm 26.0 E 20 23 1015.3 - - - - - - - - -
25/09:15pm 26.2 E 19 - 1015.1 - - - - - - - - -
25/09:00pm 26.0 ESE 20 23 1015.1 - - - - - - - - -
25/08:30pm 26.1 E 21 24 1014.9 - - - - - - - - -
25/08:15pm 25.7 E 18 - 1014.5 - - - - - - - - -
25/08:00pm 26.1 E 16 19 1014.7 - - - - - - - - -
25/07:30pm 26.0 E 16 18 1014.4 - - - - - - - - -
25/07:15pm 26.0 E 16 - 1014.0 - - - - - - - - -
25/07:00pm 26.1 E 16 18 1014.2 - - - - - - - - -
25/06:30pm 26.2 ESE 14 16 1014.0 - - - - - - - - -
25/06:15pm 26.1 ESE 14 - 1013.7 - - - - - - - - -
25/06:00pm 26.2 ESE 15 17 1014.0 - - - - - - - - -
25/05:30pm 26.2 ESE 14 15 1013.7 - - - - - - - - -
25/05:15pm 26.2 ESE 13 - 1013.2 - - - - - - - - -
25/05:00pm 26.1 ESE 13 16 1013.4 - - - - - - - - -
25/04:30pm 26.2 ESE 14 17 1013.4 - - - - - - - - -
25/04:15pm 26.2 ESE 14 - 1013.0 - - - - - - - - -
25/04:00pm 26.3 SE 14 16 1013.3 - - - - - - - - -
25/03:30pm 26.2 ESE 13 16 1013.1 - - - - - - - - -
25/03:15pm 26.3 ESE 13 - 1012.9 - - - - - - - - -
25/03:00pm 26.2 ESE 12 14 1013.2 - - - - - - - - -
25/02:30pm 26.2 ESE 13 15 1013.5 - - - - - - - - -
25/02:15pm 26.2 ESE 13 - 1013.2 - - - - - - - - -
25/02:00pm 26.3 ESE 13 15 1013.6 - - - - - - - - -
25/01:30pm 26.1 ESE 13 14 1014.0 - - - - - - - - -
25/01:15pm 26.4 ESE 13 - 1013.9 - - - - - - - - -
25/01:00pm 26.3 ESE 14 15 1014.5 - - - - - - - - -
25/12:30pm 26.4 ESE 14 16 1015.1 - - - - - - - - -
25/12:15pm 26.2 ESE 15 - 1014.8 - - - - - - - - -
25/12:00pm 26.2 ESE 14 16 1015.2 - - - - - - - - -
25/11:30am 26.3 ESE 14 16 1015.4 - - - - - - - - -
25/11:15am 26.2 ESE 14 - 1015.2 - - - - - - - - -
25/11:00am 26.2 ESE 13 15 1015.7 - - - - - - - - -
25/10:30am 26.3 ESE 13 15 1015.7 - - - - - - - - -
25/10:15am 26.2 ESE 14 - 1015.5 - - - - - - - - -
25/10:00am 26.2 ESE 15 18 1015.9 - - - - - - - - -
25/09:30am 26.2 ESE 16 18 1015.7 - - - - - - - - -
25/09:15am 26.1 ESE 16 - 1015.3 - - - - - - - - -
25/09:00am 26.1 ESE 15 17 1015.5 - - - - - - - - -
25/08:30am 26.1 ESE 16 18 1015.3 - - - - - - - - -
25/08:15am 26.1 ESE 16 - 1014.8 - - - - - - - - -
25/08:00am 26.0 SE 16 19 1014.8 - - - - - - - - -
25/07:30am 25.9 ESE 15 18 1014.6 - - - - - - - - -
25/07:15am 25.8 ESE 15 - 1014.1 - - - - - - - - -
25/07:00am 25.7 ESE 15 17 1014.3 - - - - - - - - -
25/06:30am 25.7 SE 14 15 1014.2 - - - - - - - - -
25/06:15am 25.7 SE 14 - 1013.8 - - - - - - - - -
25/06:00am 25.7 ESE 14 16 1013.9 - - - - - - - - -
25/05:30am 25.7 ESE 15 17 1013.8 - - - - - - - - -
25/05:15am 25.8 E 14 - 1013.4 - - - - - - - - -
25/05:00am 25.7 ESE 13 16 1013.6 - - - - - - - - -
25/04:30am 25.7 E 13 16 1013.3 - - - - - - - - -
25/04:15am 25.6 E 13 - 1013.0 - - - - - - - - -
25/04:00am 25.6 E 13 15 1013.3 - - - - - - - - -
25/03:30am 25.8 E 13 15 1013.2 - - - - - - - - -
25/03:15am 25.7 E 13 - 1012.8 - - - - - - - - -
25/03:00am 25.7 E 14 15 1013.2 - - - - - - - - -
25/02:30am 25.9 ESE 13 15 1013.3 - - - - - - - - -
25/02:15am 25.7 ESE 12 - 1013.0 - - - - - - - - -
25/02:00am 25.8 ESE 13 15 1013.6 - - - - - - - - -
25/01:30am 25.8 E 13 15 1013.8 - - - - - - - - -
25/01:15am 25.9 E 13 - 1013.7 - - - - - - - - -
25/01:00am 25.9 E 13 15 1013.9 - - - - - - - - -
25/12:30am 25.9 E 14 15 1014.0 - - - - - - - - -
25/12:15am 25.9 E 13 - 1013.7 - - - - - - - - -
25/12:00am 25.9 E 13 14 1013.9 - - - - - - - - -
 
Date/Time
EST
Temp
°C
Wind Pressure Rain since
9am
mm
Weather Cloud Vis
km
Sea
Height
m
Swell
Dir  Spd
kts
Gust
kts
hPa Trend Height
m
Period
s
Dir
24/11:30pm 26.0 E 13 15 1014.2 - - - - - - - - -
24/11:15pm 25.9 ESE 12 - 1014.1 - - - - - - - - -
24/11:00pm 26.0 ESE 12 14 1014.5 - - - - - - - - -
24/10:30pm 26.0 ESE 12 13 1014.6 - - - - - - - - -
24/10:15pm 26.1 ESE 12 - 1014.4 - - - - - - - - -
24/10:00pm 26.0 ESE 12 13 1014.7 - - - - - - - - -
24/09:30pm 26.2 ESE 13 14 1014.7 - - - - - - - - -
24/09:15pm 26.1 SE 12 - 1014.4 - - - - - - - - -
24/09:00pm 26.1 SE 13 15 1014.7 - - - - - - - - -
24/08:30pm 26.1 SE 11 12 1014.4 - - - - - - - - -
24/08:15pm 26.1 SE 11 - 1014.0 - - - - - - - - -
24/08:00pm 26.1 SE 10 12 1014.1 - - - - - - - - -
24/07:30pm 26.1 SE 11 12 1013.9 - - - - - - - - -
24/07:15pm 26.3 SE 11 - 1013.5 - - - - - - - - -
24/07:00pm 26.1 SE 11 12 1013.6 - - - - - - - - -
24/06:30pm 26.2 ESE 9 11 1013.3 - - - - - - - - -
24/06:15pm 26.1 ESE 9 - 1012.9 - - - - - - - - -
24/06:00pm 26.2 ESE 8 9 1013.1 - - - - - - - - -
24/05:30pm 26.3 ESE 8 9 1012.8 - - - - - - - - -
24/05:15pm 26.4 ESE 8 - 1012.3 - - - - - - - - -
24/05:00pm 26.4 ESE 8 9 1012.6 - - - - - - - - -
24/04:30pm 26.5 ESE 8 10 1012.6 - - - - - - - - -
24/04:15pm 26.5 ESE 8 - 1012.1 - - - - - - - - -
24/04:00pm 26.6 ESE 8 9 1012.4 - - - - - - - - -
24/03:30pm 26.6 ESE 8 9 1012.5 - - - - - - - - -
24/03:15pm 26.7 SE 9 - 1012.1 - - - - - - - - -
24/03:00pm 26.6 SE 9 10 1012.3 - - - - - - - - -
24/02:30pm 26.6 SE 9 11 1012.5 - - - - - - - - -
24/02:15pm 26.5 ESE 9 - 1012.1 - - - - - - - - -
24/02:00pm 26.5 ESE 8 9 1012.4 - - - - - - - - -
24/01:30pm 26.4 E 8 9 1012.4 - - - - - - - - -
24/01:15pm 26.6 E 8 - 1012.3 - - - - - - - - -
24/01:00pm 26.4 E 8 10 1012.8 - - - - - - - - -
24/12:30pm 26.6 ESE 8 9 1013.6 - - - - - - - - -
24/12:15pm 26.6 ESE 8 - 1013.6 - - - - - - - - -
24/12:00pm 26.6 ESE 8 9 1014.0 - - - - - - - - -
24/11:30am 26.7 ESE 8 10 1014.3 - - - - - - - - -
24/11:15am 26.5 ESE 8 - 1014.2 - - - - - - - - -
24/11:00am 26.7 ESE 7 8 1014.6 - - - - - - - - -
24/10:30am 26.7 ESE 7 8 1014.6 - - - - - - - - -
24/10:15am 26.8 E 7 - 1014.3 - - - - - - - - -
24/10:00am 26.6 ESE 7 9 1014.6 - - - - - - - - -
24/09:30am 26.7 ENE 10 11 1014.5 - - - - - - - - -
24/09:15am 26.5 ENE 11 - 1014.2 - - - - - - - - -
24/09:00am 26.7 ENE 11 13 1014.4 - - - - - - - - -
24/08:30am 26.5 E 13 14 1014.1 - - - - - - - - -
24/08:15am 26.5 ENE 12 - 1013.7 - - - - - - - - -
24/08:00am 26.5 ENE 12 14 1013.9 - - - - - - - - -
24/07:30am 26.3 ENE 12 14 1013.5 - - - - - - - - -
24/07:15am 26.2 E 12 - 1013.0 - - - - - - - - -
24/07:00am 26.0 E 12 14 1013.3 - - - - - - - - -
24/06:30am 26.1 E 11 13 1012.9 - - - - - - - - -
24/06:15am 26.0 E 11 - 1012.5 - - - - - - - - -
24/06:00am 26.0 E 11 13 1012.7 - - - - - - - - -
24/05:30am 26.0 E 10 11 1012.5 - - - - - - - - -
24/05:15am 26.0 E 9 - 1012.1 - - - - - - - - -
24/05:00am 26.1 E 10 11 1012.4 - - - - - - - - -
24/04:30am 26.1 E 10 11 1012.1 - - - - - - - - -
24/04:15am 26.1 E 10 - 1011.6 - - - - - - - - -
24/04:00am 26.0 E 10 11 1012.0 - - - - - - - - -
24/03:30am 26.2 E 9 10 1011.9 - - - - - - - - -
24/03:15am 26.2 E 10 - 1011.7 - - - - - - - - -
24/03:00am 26.2 E 9 11 1011.9 - - - - - - - - -
24/02:30am 26.3 E 10 11 1012.3 - - - - - - - - -
24/02:15am 26.4 E 9 - 1012.0 - - - - - - - - -
24/02:00am 26.4 E 10 11 1012.4 - - - - - - - - -
24/01:30am 26.4 E 10 11 1012.6 - - - - - - - - -
24/01:15am 26.5 E 10 - 1012.3 - - - - - - - - -
24/01:00am 26.5 E 10 12 1012.8 - - - - - - - - -
24/12:30am 26.5 E 9 11 1012.8 - - - - - - - - -
24/12:15am 26.7 E 10 - 1012.7 - - - - - - - - -
24/12:00am 26.7 E 10 12 1013.1 - - - - - - - - -
 
Date/Time
EST
Temp
°C
Wind Pressure Rain since
9am
mm
Weather Cloud Vis
km
Sea
Height
m
Swell
Dir  Spd
kts
Gust
kts
hPa Trend Height
m
Period
s
Dir
23/11:30pm 26.6 ENE 11 12 1013.1 - - - - - - - - -
23/11:15pm 26.6 ENE 11 - 1012.8 - - - - - - - - -
23/11:00pm 26.6 ENE 10 12 1013.1 - - - - - - - - -
23/10:30pm 26.5 E 10 11 1013.1 - - - - - - - - -
23/10:15pm 26.5 E 10 - 1012.8 - - - - - - - - -
23/10:00pm 26.5 E 11 12 1013.2 - - - - - - - - -
23/09:30pm 26.7 E 12 13 1013.2 - - - - - - - - -
23/09:15pm 26.6 E 12 - 1012.8 - - - - - - - - -
23/09:00pm 26.6 E 12 13 1013.0 - - - - - - - - -
23/08:30pm 26.4 E 10 13 1012.8 - - - - - - - - -
23/08:15pm 26.4 E 12 - 1012.4 - - - - - - - - -
23/08:00pm 26.4 E 12 14 1012.5 - - - - - - - - -
23/07:30pm 26.3 E 12 14 1012.3 - - - - - - - - -
23/07:15pm 26.3 E 12 - 1011.9 - - - - - - - - -
23/07:00pm 26.2 E 14 16 1012.1 - - - - - - - - -
23/06:30pm 26.2 E 12 15 1011.8 - - - - - - - - -
23/06:15pm 25.7 E 14 - 1011.4 - - - - - - - - -
23/06:00pm 26.2 ESE 12 15 1011.6 - - - - - - - - -
23/05:30pm 24.8 E 16 19 1011.5 - - - - - - - - -
23/05:15pm 25.4 ESE 13 - 1011.1 - - - - - - - - -
23/05:00pm 25.7 ESE 12 15 1011.3 - - - - - - - - -
23/04:30pm 25.1 SE 12 14 1011.2 - - - - - - - - -
23/04:15pm 25.0 SE 15 - 1010.8 - - - - - - - - -
23/04:00pm 25.1 SSE 14 16 1010.9 - - - - - - - - -
23/03:30pm 25.4 SSE 15 18 1010.9 - - - - - - - - -
23/03:15pm 25.8 SSE 15 - 1010.5 - - - - - - - - -
23/03:00pm 26.0 SSE 15 17 1010.8 - - - - - - - - -

Other Formats:

Comma delimited format used in spreadsheet applications
http://www.bom.gov.au/fwo/IDQ60701/IDQ60701.94289.axf

JavaScript Object Notation format (JSON) in row-major order
http://www.bom.gov.au/fwo/IDQ60701/IDQ60701.94289.json